createdAt,value
2023-03-29T00:04:30.844Z,0
2023-03-29T00:09:32.444Z,0
2023-03-29T00:14:33.752Z,0.88715
2023-03-29T00:19:35.037Z,0
2023-03-29T00:24:36.519Z,0
2023-03-29T00:29:37.842Z,0
2023-03-29T00:34:39.196Z,0
2023-03-29T00:39:40.801Z,0
2023-03-29T00:44:42.111Z,0
2023-03-29T00:49:43.436Z,0
2023-03-29T00:54:45.058Z,0.88715
2023-03-29T00:59:46.521Z,0
2023-03-29T01:04:47.940Z,0
2023-03-29T01:09:49.367Z,0
2023-03-29T01:14:51.373Z,0
2023-03-29T01:19:52.792Z,0.88715
2023-03-29T01:24:54.422Z,0.88715
2023-03-29T01:29:55.691Z,0
2023-03-29T01:34:57.249Z,0
2023-03-29T01:39:58.646Z,0
2023-03-29T01:44:59.909Z,0
2023-03-29T01:50:01.182Z,0
2023-03-29T01:55:02.476Z,0
2023-03-29T02:00:03.726Z,0
2023-03-29T02:05:05.120Z,0
2023-03-29T02:10:06.761Z,0
2023-03-29T02:15:08.028Z,0
2023-03-29T02:20:09.308Z,0.88715
2023-03-29T02:25:10.675Z,0
2023-03-29T02:30:12.103Z,0
2023-03-29T02:35:13.415Z,0
2023-03-29T02:40:14.913Z,0
2023-03-29T02:45:16.317Z,0
2023-03-29T02:50:17.650Z,0
2023-03-29T02:55:19.370Z,0
2023-03-29T03:00:20.613Z,0
2023-03-29T03:05:22.077Z,0
2023-03-29T03:10:23.377Z,0
2023-03-29T03:15:24.682Z,0
2023-03-29T03:20:25.946Z,0
2023-03-29T03:25:27.505Z,0
2023-03-29T03:30:28.826Z,0.88715
2023-03-29T03:35:30.244Z,0
2023-03-29T03:40:31.778Z,0
2023-03-29T03:45:33.417Z,0.88715
2023-03-29T03:50:34.712Z,0.88715
2023-03-29T03:55:36.071Z,1.16185
2023-03-29T04:00:37.336Z,0.88885
2023-03-29T04:05:38.824Z,1.6592
2023-03-29T04:10:40.290Z,4.9776
2023-03-29T04:15:41.638Z,11.67355
2023-03-29T04:20:42.931Z,13.98465
2023-03-29T04:25:44.256Z,13.9847
2023-03-29T04:30:45.683Z,24.6023
2023-03-29T04:35:47.112Z,30.1358
2023-03-29T04:40:48.418Z,43.3764
2023-03-29T04:45:49.715Z,63.38825
2023-03-29T04:50:50.983Z,81.4435
2023-03-29T04:55:52.706Z,102.7637
2023-03-29T05:00:54.055Z,129.54325
2023-03-29T05:05:55.341Z,145.34895
2023-03-29T05:10:56.720Z,168.97385
2023-03-29T05:15:58.393Z,196.76695
2023-03-29T05:21:00.199Z,223.19475
2023-03-29T05:26:01.784Z,223.7481
2023-03-29T05:31:03.187Z,251.5032
2023-03-29T05:36:04.834Z,306.8841
2023-03-29T05:41:06.456Z,256.68125
2023-03-29T05:46:07.980Z,329.71235
2023-03-29T05:51:09.420Z,381.94045
2023-03-29T05:56:10.800Z,446.08365
2023-03-29T06:01:12.195Z,475.6471
2023-03-29T06:06:13.607Z,494.93835
2023-03-29T06:11:15.638Z,515.02255
2023-03-29T06:16:17.034Z,530.1456
2023-03-29T06:21:18.321Z,555.70815
2023-03-29T06:26:19.906Z,573.28605
2023-03-29T06:31:21.270Z,601.11715
2023-03-29T06:36:22.590Z,616.4608
2023-03-29T06:41:24.696Z,631.69415
2023-03-29T06:46:26.180Z,639.8271
2023-03-29T06:51:27.465Z,629.81905
2023-03-29T06:56:28.792Z,620.2369
2023-03-29T07:01:30.227Z,422.6886
2023-03-29T07:06:31.521Z,337.4421
2023-03-29T07:11:33.624Z,423.2897
2023-03-29T07:16:35.049Z,726.9751
2023-03-29T07:21:37.844Z,779.1879
2023-03-29T07:26:46.337Z,847.80885
2023-03-29T07:31:53.941Z,504.9876
2023-03-29T07:36:55.161Z,504.8773
2023-03-29T07:41:56.764Z,546.18855
2023-03-29T07:46:58.028Z,571.0513
2023-03-29T07:51:59.263Z,558.1778
2023-03-29T07:57:00.747Z,576.12275
2023-03-29T08:02:02.386Z,606.83275
2023-03-29T08:07:04.096Z,715.86775
2023-03-29T08:12:05.527Z,604.1916
2023-03-29T08:17:06.863Z,647.75425
2023-03-29T08:22:08.421Z,559.3151
2023-03-29T08:27:09.914Z,857.59815
2023-03-29T08:32:11.273Z,751.05415
2023-03-29T08:37:12.697Z,644.9954
2023-03-29T08:42:14.287Z,793.7534
2023-03-29T08:47:15.554Z,785.87905
2023-03-29T08:52:16.872Z,799.60065
2023-03-29T08:57:18.204Z,804.06325
2023-03-29T09:02:19.659Z,827.23285
2023-03-29T09:07:21.018Z,838.2547
2023-03-29T09:12:22.500Z,863.1428
2023-03-29T09:17:23.823Z,883.4681
2023-03-29T09:22:25.127Z,901.2453
2023-03-29T09:27:26.706Z,914.8745
2023-03-29T09:32:28.004Z,933.1258
2023-03-29T09:37:29.322Z,949.89565
2023-03-29T09:42:31.555Z,969.21355
2023-03-29T09:47:33.040Z,989.83515
2023-03-29T09:52:34.487Z,1005.5976
2023-03-29T09:57:36.210Z,1023.97995
2023-03-29T10:02:37.580Z,1058.00635
2023-03-29T10:07:38.870Z,1072.37445
2023-03-29T10:12:40.714Z,1096.2941
2023-03-29T10:17:42.143Z,1107.24895
2023-03-29T10:22:43.435Z,1164.8261
2023-03-29T10:27:44.929Z,1204.7359
2023-03-29T10:32:46.290Z,1240.5878
2023-03-29T10:37:47.615Z,1295.23275
2023-03-29T10:42:49.245Z,1364.63185
2023-03-29T10:47:50.564Z,1443.9551
2023-03-29T10:52:51.873Z,1502.93555
2023-03-29T10:57:53.448Z,578.0799
2023-03-29T11:02:55.116Z,564.6512
2023-03-29T11:07:56.605Z,1631.13435
2023-03-29T11:12:58.955Z,1616.59895
2023-03-29T11:18:00.423Z,1669.15425
2023-03-29T11:23:01.788Z,1684.4103
2023-03-29T11:28:03.064Z,1710.90855
2023-03-29T11:33:04.946Z,1749.8771
2023-03-29T11:38:06.229Z,1851.80615
2023-03-29T11:43:08.332Z,1867.46725
2023-03-29T11:48:09.639Z,551.70725
2023-03-29T11:53:11.169Z,1818.73815
2023-03-29T11:58:12.788Z,759.8114
2023-03-29T12:03:14.138Z,600.5031
2023-03-29T12:08:15.526Z,2047.70045
2023-03-29T12:13:17.256Z,2038.49325
2023-03-29T12:18:18.574Z,1360.4359
2023-03-29T12:23:20.061Z,2077.1916
2023-03-29T12:28:21.321Z,1274.30095
2023-03-29T12:33:22.632Z,455.441
2023-03-29T12:38:24.033Z,244.9733
2023-03-29T12:43:25.456Z,139.3344
2023-03-29T12:48:26.885Z,105.95265
2023-03-29T12:53:28.250Z,93.98425
2023-03-29T12:58:29.628Z,98.13345
2023-03-29T13:03:31.058Z,103.5928
2023-03-29T13:08:32.420Z,116.318
2023-03-29T13:13:34.696Z,111.0811
2023-03-29T13:18:36.026Z,100.01595
2023-03-29T13:23:37.299Z,103.07745
2023-03-29T13:28:38.716Z,112.37225
2023-03-29T13:33:40.078Z,105.7149
2023-03-29T13:38:41.323Z,97.71125
2023-03-29T13:43:43.429Z,101.695
2023-03-29T13:48:44.705Z,115.9074
2023-03-29T13:53:46.085Z,140.7362
2023-03-29T13:58:47.530Z,143.58055
2023-03-29T14:03:49.044Z,138.26755
2023-03-29T14:08:50.319Z,162.22335
2023-03-29T14:13:51.566Z,201.61595
2023-03-29T14:18:52.815Z,766.8585
2023-03-29T14:23:54.216Z,1358.4051
2023-03-29T14:28:55.588Z,481.4999
2023-03-29T14:33:57.181Z,277.06575
2023-03-29T14:38:58.460Z,259.47255
2023-03-29T14:43:59.745Z,241.231
2023-03-29T14:49:01.017Z,218.19375
2023-03-29T14:54:02.579Z,197.11315
2023-03-29T14:59:03.979Z,172.8246
2023-03-29T15:04:05.240Z,150.0858
2023-03-29T15:09:07.062Z,100.95535
2023-03-29T15:14:08.684Z,74.8223
2023-03-29T15:19:10.010Z,42.0129
2023-03-29T15:24:11.245Z,29.45315
2023-03-29T15:29:12.781Z,25.4694
2023-03-29T15:34:14.242Z,18.55345
2023-03-29T15:39:15.712Z,15.25235
2023-03-29T15:44:17.001Z,14.281
2023-03-29T15:49:18.280Z,12.79935
2023-03-29T15:54:19.757Z,12.06155
2023-03-29T15:59:21.224Z,7.8382
2023-03-29T16:04:22.564Z,8.4467
2023-03-29T16:09:23.991Z,6.91595
2023-03-29T16:14:25.641Z,5.3852
2023-03-29T16:19:26.930Z,6.9711
2023-03-29T16:24:28.566Z,1.3463
2023-03-29T16:29:30.035Z,1.16185
2023-03-29T16:34:31.402Z,0.88715
2023-03-29T16:39:32.948Z,0.88715
2023-03-29T16:44:34.709Z,0.88715
2023-03-29T16:49:37.150Z,0
2023-03-29T16:54:40.031Z,0
2023-03-29T16:59:41.519Z,0
2023-03-29T17:04:42.880Z,0
2023-03-29T17:09:44.341Z,0.88715
2023-03-29T17:14:45.735Z,0.88715
2023-03-29T17:19:47.328Z,0.88715
2023-03-29T17:24:48.569Z,0.88715
2023-03-29T17:29:50.185Z,0.88715
2023-03-29T17:34:51.736Z,0.88715
2023-03-29T17:39:53.005Z,0
2023-03-29T17:44:54.678Z,0
2023-03-29T17:49:55.928Z,0
2023-03-29T17:54:57.194Z,0.88715
2023-03-29T17:59:58.490Z,0
2023-03-29T18:04:59.793Z,0
2023-03-29T18:10:01.065Z,0
2023-03-29T18:15:02.714Z,0
2023-03-29T18:20:04.147Z,0
2023-03-29T18:25:05.476Z,0.88715
2023-03-29T18:30:06.889Z,0
2023-03-29T18:35:08.372Z,0.88715
2023-03-29T18:40:09.791Z,0
2023-03-29T18:45:11.036Z,0
2023-03-29T18:50:12.342Z,0.88715
2023-03-29T18:55:13.730Z,0
2023-03-29T19:00:15.030Z,0
2023-03-29T19:05:16.303Z,0
2023-03-29T19:10:17.881Z,0
2023-03-29T19:15:19.191Z,0
2023-03-29T19:20:20.706Z,0
2023-03-29T19:25:22.127Z,0
2023-03-29T19:30:23.712Z,0
2023-03-29T19:35:25.061Z,0
2023-03-29T19:40:26.413Z,0
2023-03-29T19:45:27.656Z,0
2023-03-29T19:50:28.931Z,0
2023-03-29T19:55:30.491Z,0
2023-03-29T20:00:31.964Z,0
2023-03-29T20:05:33.226Z,0
2023-03-29T20:10:34.524Z,0
2023-03-29T20:15:36.174Z,0
2023-03-29T20:20:37.510Z,0
2023-03-29T20:25:39.086Z,0
2023-03-29T20:30:40.369Z,0
2023-03-29T20:35:41.881Z,0
2023-03-29T20:40:43.231Z,0
2023-03-29T20:45:52.505Z,0
2023-03-29T20:50:55.073Z,0
2023-03-29T20:55:56.519Z,0
2023-03-29T21:00:58.025Z,0
2023-03-29T21:05:59.356Z,0
2023-03-29T21:11:00.779Z,0
2023-03-29T21:16:02.529Z,0
2023-03-29T21:21:04.083Z,0
2023-03-29T21:26:05.530Z,0
2023-03-29T21:31:07.411Z,0.88715
2023-03-29T21:36:08.830Z,0
2023-03-29T21:41:10.363Z,0
2023-03-29T21:46:11.869Z,0
2023-03-29T21:51:13.354Z,0
2023-03-29T21:56:14.620Z,0
2023-03-29T22:01:16.037Z,0.88715
2023-03-29T22:13:31.992Z,0
2023-03-29T22:18:35.059Z,0
2023-03-29T22:23:36.555Z,0
2023-03-29T22:28:38.004Z,0
2023-03-29T22:33:39.954Z,0
2023-03-29T22:38:41.373Z,0
2023-03-29T22:43:42.749Z,0
2023-03-29T22:48:44.578Z,0
2023-03-29T22:53:45.941Z,0
2023-03-29T22:58:47.434Z,0
2023-03-29T23:03:50.423Z,0
2023-03-29T23:08:51.813Z,0
2023-03-29T23:13:54.209Z,0
2023-03-29T23:18:55.649Z,0
2023-03-29T23:23:58.386Z,0
2023-03-29T23:28:59.749Z,0
2023-03-29T23:34:01.456Z,0.88715
2023-03-29T23:39:03.037Z,0
2023-03-29T23:44:04.993Z,0
2023-03-29T23:49:06.400Z,0
2023-03-29T23:54:07.775Z,0
2023-03-29T23:59:09.062Z,0
